Terminal Aerodrome Forecast
Issued by NWS

Home | Current Version | Previous Version | Text Only | Print | Product List | Glossary On
Versions: 1 2 3 4 5 6 7 8 9 10 11 12
398
FTUS46 KLOX 102320
TAFPRB
TAF
KPRB 102320Z 1100/1124 10006KT P6SM SKC
     FM110300 VRB03KT P6SM SKC=

USA.gov is the U.S. government's official web portal to all federal, state and local government web resources and services.